sensor_id;sensor_type;location;lat;lon;timestamp;temperature;humidity
12329;DHT22;6230;52.390;10.256;2023-04-16T00:02:11;13.10;75.00
12329;DHT22;6230;52.390;10.256;2023-04-16T00:04:37;13.10;75.10
12329;DHT22;6230;52.390;10.256;2023-04-16T00:07:02;13.10;75.10
12329;DHT22;6230;52.390;10.256;2023-04-16T00:09:28;13.10;75.20
12329;DHT22;6230;52.390;10.256;2023-04-16T00:11:53;13.00;75.20
12329;DHT22;6230;52.390;10.256;2023-04-16T00:14:20;13.00;75.20
12329;DHT22;6230;52.390;10.256;2023-04-16T00:16:46;13.00;75.30
12329;DHT22;6230;52.390;10.256;2023-04-16T00:19:11;13.00;75.30
12329;DHT22;6230;52.390;10.256;2023-04-16T00:21:37;13.00;75.40
12329;DHT22;6230;52.390;10.256;2023-04-16T00:24:02;13.00;75.40
12329;DHT22;6230;52.390;10.256;2023-04-16T00:26:28;12.90;75.50
12329;DHT22;6230;52.390;10.256;2023-04-16T00:28:53;12.90;75.50
12329;DHT22;6230;52.390;10.256;2023-04-16T00:31:29;12.90;75.60
12329;DHT22;6230;52.390;10.256;2023-04-16T00:33:55;12.90;75.70
12329;DHT22;6230;52.390;10.256;2023-04-16T00:36:22;12.90;75.60
12329;DHT22;6230;52.390;10.256;2023-04-16T00:38:48;12.90;75.70
12329;DHT22;6230;52.390;10.256;2023-04-16T00:41:13;12.90;75.70
12329;DHT22;6230;52.390;10.256;2023-04-16T00:43:39;12.80;75.70
12329;DHT22;6230;52.390;10.256;2023-04-16T00:46:04;12.80;75.60
12329;DHT22;6230;52.390;10.256;2023-04-16T00:48:32;12.70;75.80
12329;DHT22;6230;52.390;10.256;2023-04-16T00:50:58;12.70;75.90
12329;DHT22;6230;52.390;10.256;2023-04-16T00:53:25;12.70;75.90
12329;DHT22;6230;52.390;10.256;2023-04-16T00:55:51;12.60;75.90
12329;DHT22;6230;52.390;10.256;2023-04-16T00:58:17;12.60;76.00
12329;DHT22;6230;52.390;10.256;2023-04-16T01:00:42;12.60;76.00
12329;DHT22;6230;52.390;10.256;2023-04-16T01:03:08;12.50;76.00
12329;DHT22;6230;52.390;10.256;2023-04-16T01:05:35;12.50;76.00
12329;DHT22;6230;52.390;10.256;2023-04-16T01:08:01;12.50;76.20
12329;DHT22;6230;52.390;10.256;2023-04-16T01:10:27;12.50;76.20
12329;DHT22;6230;52.390;10.256;2023-04-16T01:12:52;12.40;76.20
12329;DHT22;6230;52.390;10.256;2023-04-16T01:15:18;12.40;76.20
12329;DHT22;6230;52.390;10.256;2023-04-16T01:17:44;12.40;76.30
12329;DHT22;6230;52.390;10.256;2023-04-16T01:20:10;12.40;76.30
12329;DHT22;6230;52.390;10.256;2023-04-16T01:22:36;12.40;76.30
12329;DHT22;6230;52.390;10.256;2023-04-16T01:25:02;12.40;76.30
12329;DHT22;6230;52.390;10.256;2023-04-16T01:27:27;12.40;76.30
12329;DHT22;6230;52.390;10.256;2023-04-16T01:29:53;12.40;76.30
12329;DHT22;6230;52.390;10.256;2023-04-16T01:32:20;12.40;76.40
12329;DHT22;6230;52.390;10.256;2023-04-16T01:34:46;12.40;76.30
12329;DHT22;6230;52.390;10.256;2023-04-16T01:37:11;12.30;76.30
12329;DHT22;6230;52.390;10.256;2023-04-16T01:39:37;12.30;76.30
12329;DHT22;6230;52.390;10.256;2023-04-16T01:42:03;12.30;76.30
12329;DHT22;6230;52.390;10.256;2023-04-16T01:44:28;12.30;76.40
12329;DHT22;6230;52.390;10.256;2023-04-16T01:46:55;12.20;76.40
12329;DHT22;6230;52.390;10.256;2023-04-16T01:49:21;12.20;76.40
12329;DHT22;6230;52.390;10.256;2023-04-16T01:51:47;12.20;76.40
12329;DHT22;6230;52.390;10.256;2023-04-16T01:54:12;12.20;76.40
12329;DHT22;6230;52.390;10.256;2023-04-16T01:56:38;12.20;76.40
12329;DHT22;6230;52.390;10.256;2023-04-16T01:59:03;12.20;76.50
12329;DHT22;6230;52.390;10.256;2023-04-16T02:01:29;12.10;77.10
12329;DHT22;6230;52.390;10.256;2023-04-16T02:03:56;12.10;76.40
12329;DHT22;6230;52.390;10.256;2023-04-16T02:06:22;12.10;76.40
12329;DHT22;6230;52.390;10.256;2023-04-16T02:08:47;12.10;76.50
12329;DHT22;6230;52.390;10.256;2023-04-16T02:11:14;12.10;76.50
12329;DHT22;6230;52.390;10.256;2023-04-16T02:13:39;12.10;76.50
12329;DHT22;6230;52.390;10.256;2023-04-16T02:16:05;12.10;76.50
12329;DHT22;6230;52.390;10.256;2023-04-16T02:18:31;12.00;76.40
12329;DHT22;6230;52.390;10.256;2023-04-16T02:20:57;12.00;76.50
12329;DHT22;6230;52.390;10.256;2023-04-16T02:23:24;12.00;76.50
12329;DHT22;6230;52.390;10.256;2023-04-16T02:25:50;12.00;76.50
12329;DHT22;6230;52.390;10.256;2023-04-16T02:28:16;12.00;76.50
12329;DHT22;6230;52.390;10.256;2023-04-16T02:30:42;12.00;76.50
12329;DHT22;6230;52.390;10.256;2023-04-16T02:33:10;11.90;76.50
12329;DHT22;6230;52.390;10.256;2023-04-16T02:35:37;11.90;76.60
12329;DHT22;6230;52.390;10.256;2023-04-16T02:38:03;11.90;76.60
12329;DHT22;6230;52.390;10.256;2023-04-16T02:40:30;11.90;76.60
12329;DHT22;6230;52.390;10.256;2023-04-16T02:42:55;11.90;76.70
12329;DHT22;6230;52.390;10.256;2023-04-16T02:45:21;11.90;76.70
12329;DHT22;6230;52.390;10.256;2023-04-16T02:47:48;11.80;76.70
12329;DHT22;6230;52.390;10.256;2023-04-16T02:50:14;11.80;76.80
12329;DHT22;6230;52.390;10.256;2023-04-16T02:52:40;11.80;76.80
12329;DHT22;6230;52.390;10.256;2023-04-16T02:55:06;11.80;76.70
12329;DHT22;6230;52.390;10.256;2023-04-16T02:57:32;11.80;76.70
12329;DHT22;6230;52.390;10.256;2023-04-16T02:59:58;11.80;76.80
12329;DHT22;6230;52.390;10.256;2023-04-16T03:02:23;11.70;76.80
12329;DHT22;6230;52.390;10.256;2023-04-16T03:04:49;11.70;76.90
12329;DHT22;6230;52.390;10.256;2023-04-16T03:07:15;11.70;76.90
12329;DHT22;6230;52.390;10.256;2023-04-16T03:09:41;11.70;76.90
12329;DHT22;6230;52.390;10.256;2023-04-16T03:12:07;11.70;76.90
12329;DHT22;6230;52.390;10.256;2023-04-16T03:14:32;11.70;76.80
12329;DHT22;6230;52.390;10.256;2023-04-16T03:16:58;11.70;76.80
12329;DHT22;6230;52.390;10.256;2023-04-16T03:19:23;11.70;76.90
12329;DHT22;6230;52.390;10.256;2023-04-16T03:21:50;11.70;76.80
12329;DHT22;6230;52.390;10.256;2023-04-16T03:24:15;11.70;76.80
12329;DHT22;6230;52.390;10.256;2023-04-16T03:26:41;11.70;76.80
12329;DHT22;6230;52.390;10.256;2023-04-16T03:29:06;11.70;76.80
12329;DHT22;6230;52.390;10.256;2023-04-16T03:31:32;11.60;76.80
12329;DHT22;6230;52.390;10.256;2023-04-16T03:33:57;11.60;76.90
12329;DHT22;6230;52.390;10.256;2023-04-16T03:36:23;11.60;76.90
12329;DHT22;6230;52.390;10.256;2023-04-16T03:38:49;11.60;77.00
12329;DHT22;6230;52.390;10.256;2023-04-16T03:41:15;11.60;77.00
12329;DHT22;6230;52.390;10.256;2023-04-16T03:43:40;11.60;77.00
12329;DHT22;6230;52.390;10.256;2023-04-16T03:46:06;11.60;76.90
12329;DHT22;6230;52.390;10.256;2023-04-16T03:48:31;11.60;76.90
12329;DHT22;6230;52.390;10.256;2023-04-16T03:50:57;11.60;76.90
12329;DHT22;6230;52.390;10.256;2023-04-16T03:53:23;11.60;76.90
12329;DHT22;6230;52.390;10.256;2023-04-16T03:55:49;11.60;77.00
12329;DHT22;6230;52.390;10.256;2023-04-16T03:58:16;11.60;77.00
12329;DHT22;6230;52.390;10.256;2023-04-16T04:00:41;11.60;77.00
12329;DHT22;6230;52.390;10.256;2023-04-16T04:03:08;11.60;77.00
12329;DHT22;6230;52.390;10.256;2023-04-16T04:05:40;11.60;76.90
12329;DHT22;6230;52.390;10.256;2023-04-16T04:08:06;11.60;77.00
12329;DHT22;6230;52.390;10.256;2023-04-16T04:10:32;11.60;77.00
12329;DHT22;6230;52.390;10.256;2023-04-16T04:12:58;11.60;77.10
12329;DHT22;6230;52.390;10.256;2023-04-16T04:15:24;11.60;77.00
12329;DHT22;6230;52.390;10.256;2023-04-16T04:17:49;11.60;77.10
12329;DHT22;6230;52.390;10.256;2023-04-16T04:20:15;11.60;77.00
12329;DHT22;6230;52.390;10.256;2023-04-16T04:22:41;11.60;77.10
12329;DHT22;6230;52.390;10.256;2023-04-16T04:25:09;11.60;77.20
12329;DHT22;6230;52.390;10.256;2023-04-16T04:27:35;11.60;77.10
12329;DHT22;6230;52.390;10.256;2023-04-16T04:30:01;11.60;77.10
12329;DHT22;6230;52.390;10.256;2023-04-16T04:32:26;11.60;77.10
12329;DHT22;6230;52.390;10.256;2023-04-16T04:34:52;11.60;77.00
12329;DHT22;6230;52.390;10.256;2023-04-16T04:37:17;11.50;77.00
12329;DHT22;6230;52.390;10.256;2023-04-16T04:39:43;11.50;77.00
12329;DHT22;6230;52.390;10.256;2023-04-16T04:42:08;11.50;77.20
12329;DHT22;6230;52.390;10.256;2023-04-16T04:44:34;11.50;77.20
12329;DHT22;6230;52.390;10.256;2023-04-16T04:46:59;11.50;77.20
12329;DHT22;6230;52.390;10.256;2023-04-16T04:49:25;11.50;77.20
12329;DHT22;6230;52.390;10.256;2023-04-16T04:51:50;11.50;77.20
12329;DHT22;6230;52.390;10.256;2023-04-16T04:54:16;11.50;77.20
12329;DHT22;6230;52.390;10.256;2023-04-16T04:56:42;11.50;77.20
12329;DHT22;6230;52.390;10.256;2023-04-16T04:59:10;11.50;77.20
12329;DHT22;6230;52.390;10.256;2023-04-16T05:01:37;11.50;77.10
12329;DHT22;6230;52.390;10.256;2023-04-16T05:04:02;11.50;77.20
12329;DHT22;6230;52.390;10.256;2023-04-16T05:06:28;11.50;77.20
12329;DHT22;6230;52.390;10.256;2023-04-16T05:08:53;11.50;77.20
12329;DHT22;6230;52.390;10.256;2023-04-16T05:11:19;11.50;77.20
12329;DHT22;6230;52.390;10.256;2023-04-16T05:13:45;11.50;77.10
12329;DHT22;6230;52.390;10.256;2023-04-16T05:16:10;11.50;77.10
12329;DHT22;6230;52.390;10.256;2023-04-16T05:18:36;11.50;77.10
12329;DHT22;6230;52.390;10.256;2023-04-16T05:21:01;11.50;77.20
12329;DHT22;6230;52.390;10.256;2023-04-16T05:23:28;11.60;77.20
12329;DHT22;6230;52.390;10.256;2023-04-16T05:25:53;11.60;77.20
12329;DHT22;6230;52.390;10.256;2023-04-16T05:28:19;11.50;77.10
12329;DHT22;6230;52.390;10.256;2023-04-16T05:30:44;11.60;77.20
12329;DHT22;6230;52.390;10.256;2023-04-16T05:33:10;11.50;77.20
12329;DHT22;6230;52.390;10.256;2023-04-16T05:35:35;11.50;77.10
12329;DHT22;6230;52.390;10.256;2023-04-16T05:38:01;11.60;77.20
12329;DHT22;6230;52.390;10.256;2023-04-16T05:40:28;11.60;77.20
12329;DHT22;6230;52.390;10.256;2023-04-16T05:42:54;11.60;77.20
12329;DHT22;6230;52.390;10.256;2023-04-16T05:45:19;11.60;77.20
12329;DHT22;6230;52.390;10.256;2023-04-16T05:47:45;11.50;77.10
12329;DHT22;6230;52.390;10.256;2023-04-16T05:50:10;11.60;77.20
12329;DHT22;6230;52.390;10.256;2023-04-16T05:52:36;11.60;77.30
12329;DHT22;6230;52.390;10.256;2023-04-16T05:55:02;11.60;77.20
12329;DHT22;6230;52.390;10.256;2023-04-16T05:57:28;11.60;77.20
12329;DHT22;6230;52.390;10.256;2023-04-16T05:59:54;11.50;77.20
12329;DHT22;6230;52.390;10.256;2023-04-16T06:02:20;11.50;77.20
12329;DHT22;6230;52.390;10.256;2023-04-16T06:04:45;11.60;77.20
12329;DHT22;6230;52.390;10.256;2023-04-16T06:07:12;11.60;77.20
12329;DHT22;6230;52.390;10.256;2023-04-16T06:09:37;11.60;77.30
12329;DHT22;6230;52.390;10.256;2023-04-16T06:12:03;11.60;77.20
12329;DHT22;6230;52.390;10.256;2023-04-16T06:14:29;11.60;77.30
12329;DHT22;6230;52.390;10.256;2023-04-16T06:16:54;11.50;77.30
12329;DHT22;6230;52.390;10.256;2023-04-16T06:19:20;11.60;77.30
12329;DHT22;6230;52.390;10.256;2023-04-16T06:21:46;11.60;77.30
12329;DHT22;6230;52.390;10.256;2023-04-16T06:24:11;11.50;77.30
12329;DHT22;6230;52.390;10.256;2023-04-16T06:26:37;11.60;77.40
12329;DHT22;6230;52.390;10.256;2023-04-16T06:29:03;11.60;77.40
12329;DHT22;6230;52.390;10.256;2023-04-16T06:31:29;11.60;77.40
12329;DHT22;6230;52.390;10.256;2023-04-16T06:33:55;11.60;77.40
12329;DHT22;6230;52.390;10.256;2023-04-16T06:36:21;11.60;77.40
12329;DHT22;6230;52.390;10.256;2023-04-16T06:38:46;11.60;77.40
12329;DHT22;6230;52.390;10.256;2023-04-16T06:41:13;11.60;77.40
12329;DHT22;6230;52.390;10.256;2023-04-16T06:43:38;11.60;77.40
12329;DHT22;6230;52.390;10.256;2023-04-16T06:46:04;11.60;77.40
12329;DHT22;6230;52.390;10.256;2023-04-16T06:48:30;11.60;77.40
12329;DHT22;6230;52.390;10.256;2023-04-16T06:50:55;11.60;77.30
12329;DHT22;6230;52.390;10.256;2023-04-16T06:53:22;11.60;77.30
12329;DHT22;6230;52.390;10.256;2023-04-16T06:55:47;11.60;77.30
12329;DHT22;6230;52.390;10.256;2023-04-16T06:58:13;11.60;77.40
12329;DHT22;6230;52.390;10.256;2023-04-16T07:00:38;11.60;77.40
12329;DHT22;6230;52.390;10.256;2023-04-16T07:03:04;11.60;77.40
12329;DHT22;6230;52.390;10.256;2023-04-16T07:05:30;11.60;77.40
12329;DHT22;6230;52.390;10.256;2023-04-16T07:07:56;11.60;77.40
12329;DHT22;6230;52.390;10.256;2023-04-16T07:10:22;11.60;77.40
12329;DHT22;6230;52.390;10.256;2023-04-16T07:12:47;11.60;77.40
12329;DHT22;6230;52.390;10.256;2023-04-16T07:15:13;11.60;77.50
12329;DHT22;6230;52.390;10.256;2023-04-16T07:17:38;11.70;77.40
12329;DHT22;6230;52.390;10.256;2023-04-16T07:20:05;11.70;77.50
12329;DHT22;6230;52.390;10.256;2023-04-16T07:22:30;11.70;77.50
12329;DHT22;6230;52.390;10.256;2023-04-16T07:24:56;11.70;77.50
12329;DHT22;6230;52.390;10.256;2023-04-16T07:27:21;11.70;77.50
12329;DHT22;6230;52.390;10.256;2023-04-16T07:29:47;11.70;77.50
12329;DHT22;6230;52.390;10.256;2023-04-16T07:32:14;11.80;78.40
12329;DHT22;6230;52.390;10.256;2023-04-16T07:34:40;11.70;77.50
12329;DHT22;6230;52.390;10.256;2023-04-16T07:37:06;11.70;77.50
12329;DHT22;6230;52.390;10.256;2023-04-16T07:39:31;11.70;77.60
12329;DHT22;6230;52.390;10.256;2023-04-16T07:41:57;11.70;77.60
12329;DHT22;6230;52.390;10.256;2023-04-16T07:44:22;11.70;77.70
12329;DHT22;6230;52.390;10.256;2023-04-16T07:46:48;11.70;77.60
12329;DHT22;6230;52.390;10.256;2023-04-16T07:49:14;11.70;77.70
12329;DHT22;6230;52.390;10.256;2023-04-16T07:51:39;11.70;77.60
12329;DHT22;6230;52.390;10.256;2023-04-16T07:54:05;11.70;77.60
12329;DHT22;6230;52.390;10.256;2023-04-16T07:56:30;11.70;77.70
12329;DHT22;6230;52.390;10.256;2023-04-16T07:58:56;11.70;77.60
12329;DHT22;6230;52.390;10.256;2023-04-16T08:01:22;11.70;77.60
12329;DHT22;6230;52.390;10.256;2023-04-16T08:03:47;11.70;77.60
12329;DHT22;6230;52.390;10.256;2023-04-16T08:06:13;11.80;77.70
12329;DHT22;6230;52.390;10.256;2023-04-16T08:08:38;11.80;77.70
12329;DHT22;6230;52.390;10.256;2023-04-16T08:11:04;11.80;77.60
12329;DHT22;6230;52.390;10.256;2023-04-16T08:13:29;11.90;77.60
12329;DHT22;6230;52.390;10.256;2023-04-16T08:15:55;11.90;77.50
12329;DHT22;6230;52.390;10.256;2023-04-16T08:18:21;11.90;77.50
12329;DHT22;6230;52.390;10.256;2023-04-16T08:20:46;11.90;77.50
12329;DHT22;6230;52.390;10.256;2023-04-16T08:23:12;11.90;77.50
12329;DHT22;6230;52.390;10.256;2023-04-16T08:25:37;11.90;77.50
12329;DHT22;6230;52.390;10.256;2023-04-16T08:28:03;12.00;77.50
12329;DHT22;6230;52.390;10.256;2023-04-16T08:30:29;12.00;77.50
12329;DHT22;6230;52.390;10.256;2023-04-16T08:32:55;12.00;77.50
12329;DHT22;6230;52.390;10.256;2023-04-16T08:35:20;12.10;77.50
12329;DHT22;6230;52.390;10.256;2023-04-16T08:37:46;12.10;77.40
12329;DHT22;6230;52.390;10.256;2023-04-16T08:40:11;12.10;77.40
12329;DHT22;6230;52.390;10.256;2023-04-16T08:42:45;12.20;77.50
12329;DHT22;6230;52.390;10.256;2023-04-16T08:45:14;12.20;77.40
12329;DHT22;6230;52.390;10.256;2023-04-16T08:47:45;12.20;77.30
12329;DHT22;6230;52.390;10.256;2023-04-16T08:50:13;12.20;77.30
12329;DHT22;6230;52.390;10.256;2023-04-16T08:52:45;12.20;77.20
12329;DHT22;6230;52.390;10.256;2023-04-16T08:55:15;12.20;77.20
12329;DHT22;6230;52.390;10.256;2023-04-16T08:57:57;12.20;77.10
12329;DHT22;6230;52.390;10.256;2023-04-16T09:00:23;12.10;77.00
12329;DHT22;6230;52.390;10.256;2023-04-16T09:02:49;12.20;77.10
12329;DHT22;6230;52.390;10.256;2023-04-16T09:05:16;12.20;77.10
12329;DHT22;6230;52.390;10.256;2023-04-16T09:07:44;12.20;77.00
12329;DHT22;6230;52.390;10.256;2023-04-16T09:10:11;12.30;77.00
12329;DHT22;6230;52.390;10.256;2023-04-16T09:12:37;12.30;77.00
12329;DHT22;6230;52.390;10.256;2023-04-16T09:15:04;12.30;76.90
12329;DHT22;6230;52.390;10.256;2023-04-16T09:17:30;12.30;76.80
12329;DHT22;6230;52.390;10.256;2023-04-16T09:19:55;12.30;76.70
12329;DHT22;6230;52.390;10.256;2023-04-16T09:22:21;12.30;76.70
12329;DHT22;6230;52.390;10.256;2023-04-16T09:24:47;12.30;76.60
12329;DHT22;6230;52.390;10.256;2023-04-16T09:27:12;12.30;76.60
12329;DHT22;6230;52.390;10.256;2023-04-16T09:29:41;12.30;76.60
12329;DHT22;6230;52.390;10.256;2023-04-16T09:32:09;12.30;76.60
12329;DHT22;6230;52.390;10.256;2023-04-16T09:34:53;12.30;76.50
12329;DHT22;6230;52.390;10.256;2023-04-16T09:37:19;12.20;76.60
12329;DHT22;6230;52.390;10.256;2023-04-16T09:39:56;12.20;76.40
12329;DHT22;6230;52.390;10.256;2023-04-16T09:42:27;12.20;76.50
12329;DHT22;6230;52.390;10.256;2023-04-16T09:44:53;12.20;76.40
12329;DHT22;6230;52.390;10.256;2023-04-16T09:47:19;12.20;76.40
12329;DHT22;6230;52.390;10.256;2023-04-16T09:49:44;12.20;76.50
12329;DHT22;6230;52.390;10.256;2023-04-16T09:52:15;12.20;76.50
12329;DHT22;6230;52.390;10.256;2023-04-16T09:54:53;12.20;76.50
12329;DHT22;6230;52.390;10.256;2023-04-16T09:57:23;12.10;76.40
12329;DHT22;6230;52.390;10.256;2023-04-16T09:59:53;12.10;76.40
12329;DHT22;6230;52.390;10.256;2023-04-16T10:02:19;12.10;76.40
12329;DHT22;6230;52.390;10.256;2023-04-16T10:04:50;12.10;76.40
12329;DHT22;6230;52.390;10.256;2023-04-16T10:07:17;12.10;76.50
12329;DHT22;6230;52.390;10.256;2023-04-16T10:09:43;12.10;76.60
12329;DHT22;6230;52.390;10.256;2023-04-16T10:12:09;12.20;76.70
12329;DHT22;6230;52.390;10.256;2023-04-16T10:14:37;12.20;76.70
12329;DHT22;6230;52.390;10.256;2023-04-16T10:17:03;12.20;76.60
12329;DHT22;6230;52.390;10.256;2023-04-16T10:19:31;12.20;76.70
12329;DHT22;6230;52.390;10.256;2023-04-16T10:21:57;12.10;76.60
12329;DHT22;6230;52.390;10.256;2023-04-16T10:24:31;12.20;76.70
12329;DHT22;6230;52.390;10.256;2023-04-16T10:26:58;12.10;76.70
12329;DHT22;6230;52.390;10.256;2023-04-16T10:29:24;12.10;76.70
12329;DHT22;6230;52.390;10.256;2023-04-16T10:31:52;12.20;76.80
12329;DHT22;6230;52.390;10.256;2023-04-16T10:34:19;12.30;76.90
12329;DHT22;6230;52.390;10.256;2023-04-16T10:36:50;12.20;76.90
12329;DHT22;6230;52.390;10.256;2023-04-16T10:39:19;12.20;76.90
12329;DHT22;6230;52.390;10.256;2023-04-16T10:41:45;12.30;76.90
12329;DHT22;6230;52.390;10.256;2023-04-16T10:44:11;12.30;76.80
12329;DHT22;6230;52.390;10.256;2023-04-16T10:46:41;12.30;76.80
12329;DHT22;6230;52.390;10.256;2023-04-16T10:51:41;12.20;76.90
12329;DHT22;6230;52.390;10.256;2023-04-16T10:56:39;12.20;77.00
12329;DHT22;6230;52.390;10.256;2023-04-16T10:59:09;12.30;76.90
12329;DHT22;6230;52.390;10.256;2023-04-16T11:01:37;12.30;77.10
12329;DHT22;6230;52.390;10.256;2023-04-16T11:10:00;12.30;77.20
12329;DHT22;6230;52.390;10.256;2023-04-16T11:15:01;12.40;77.10
12329;DHT22;6230;52.390;10.256;2023-04-16T11:17:34;12.40;77.10
12329;DHT22;6230;52.390;10.256;2023-04-16T11:20:00;12.50;77.10
12329;DHT22;6230;52.390;10.256;2023-04-16T11:22:26;12.50;77.10
12329;DHT22;6230;52.390;10.256;2023-04-16T11:24:55;12.60;77.10
12329;DHT22;6230;52.390;10.256;2023-04-16T11:27:22;12.60;77.10
12329;DHT22;6230;52.390;10.256;2023-04-16T11:29:58;12.60;77.20
12329;DHT22;6230;52.390;10.256;2023-04-16T11:32:24;12.70;77.10
12329;DHT22;6230;52.390;10.256;2023-04-16T11:34:50;12.80;77.00
12329;DHT22;6230;52.390;10.256;2023-04-16T11:37:31;12.80;77.00
12329;DHT22;6230;52.390;10.256;2023-04-16T11:39:58;12.90;77.00
12329;DHT22;6230;52.390;10.256;2023-04-16T11:42:24;12.90;77.00
12329;DHT22;6230;52.390;10.256;2023-04-16T11:44:56;12.90;77.00
12329;DHT22;6230;52.390;10.256;2023-04-16T11:47:23;13.00;77.10
12329;DHT22;6230;52.390;10.256;2023-04-16T11:49:49;13.00;77.00
12329;DHT22;6230;52.390;10.256;2023-04-16T11:54:52;13.10;77.00
12329;DHT22;6230;52.390;10.256;2023-04-16T11:57:44;13.10;76.90
12329;DHT22;6230;52.390;10.256;2023-04-16T12:00:11;13.10;77.00
12329;DHT22;6230;52.390;10.256;2023-04-16T12:02:44;13.20;76.90
12329;DHT22;6230;52.390;10.256;2023-04-16T12:07:55;13.20;77.10
12329;DHT22;6230;52.390;10.256;2023-04-16T12:10:20;13.30;77.10
12329;DHT22;6230;52.390;10.256;2023-04-16T12:12:46;13.40;77.10
12329;DHT22;6230;52.390;10.256;2023-04-16T12:15:11;13.40;77.10
12329;DHT22;6230;52.390;10.256;2023-04-16T12:17:37;13.50;77.20
12329;DHT22;6230;52.390;10.256;2023-04-16T12:20:11;13.60;77.10
12329;DHT22;6230;52.390;10.256;2023-04-16T12:22:44;13.70;77.20
12329;DHT22;6230;52.390;10.256;2023-04-16T12:25:13;13.70;77.00
12329;DHT22;6230;52.390;10.256;2023-04-16T12:27:52;13.80;77.00
12329;DHT22;6230;52.390;10.256;2023-04-16T12:30:21;13.90;76.70
12329;DHT22;6230;52.390;10.256;2023-04-16T12:32:49;14.00;76.70
12329;DHT22;6230;52.390;10.256;2023-04-16T12:35:29;14.00;76.60
12329;DHT22;6230;52.390;10.256;2023-04-16T12:37:55;14.10;76.60
12329;DHT22;6230;52.390;10.256;2023-04-16T12:40:21;14.10;76.50
12329;DHT22;6230;52.390;10.256;2023-04-16T12:42:47;14.20;76.40
12329;DHT22;6230;52.390;10.256;2023-04-16T12:45:12;14.20;76.40
12329;DHT22;6230;52.390;10.256;2023-04-16T12:47:38;14.30;76.30
12329;DHT22;6230;52.390;10.256;2023-04-16T12:50:04;14.30;76.40
12329;DHT22;6230;52.390;10.256;2023-04-16T12:52:30;14.50;76.40
12329;DHT22;6230;52.390;10.256;2023-04-16T12:54:55;14.50;76.20
12329;DHT22;6230;52.390;10.256;2023-04-16T12:57:21;14.60;76.90
12329;DHT22;6230;52.390;10.256;2023-04-16T12:59:53;14.70;76.00
12329;DHT22;6230;52.390;10.256;2023-04-16T13:02:19;14.80;76.00
12329;DHT22;6230;52.390;10.256;2023-04-16T13:04:44;14.80;75.80
12329;DHT22;6230;52.390;10.256;2023-04-16T13:07:10;14.90;75.60
12329;DHT22;6230;52.390;10.256;2023-04-16T13:09:35;15.00;75.50
12329;DHT22;6230;52.390;10.256;2023-04-16T13:12:01;15.10;75.30
12329;DHT22;6230;52.390;10.256;2023-04-16T13:14:26;15.10;75.10
12329;DHT22;6230;52.390;10.256;2023-04-16T13:16:52;15.20;75.10
12329;DHT22;6230;52.390;10.256;2023-04-16T13:19:17;15.20;74.90
12329;DHT22;6230;52.390;10.256;2023-04-16T13:21:43;15.30;74.70
12329;DHT22;6230;52.390;10.256;2023-04-16T13:24:09;15.30;74.60
12329;DHT22;6230;52.390;10.256;2023-04-16T13:26:34;15.40;74.60
12329;DHT22;6230;52.390;10.256;2023-04-16T13:29:00;15.50;74.60
12329;DHT22;6230;52.390;10.256;2023-04-16T13:31:25;15.40;74.30
12329;DHT22;6230;52.390;10.256;2023-04-16T13:33:51;15.50;74.10
12329;DHT22;6230;52.390;10.256;2023-04-16T13:36:17;15.40;74.00
12329;DHT22;6230;52.390;10.256;2023-04-16T13:38:42;15.30;73.80
12329;DHT22;6230;52.390;10.256;2023-04-16T13:41:08;15.30;74.00
12329;DHT22;6230;52.390;10.256;2023-04-16T13:43:33;15.40;74.40
12329;DHT22;6230;52.390;10.256;2023-04-16T13:45:59;15.60;74.60
12329;DHT22;6230;52.390;10.256;2023-04-16T13:48:25;15.90;74.50
12329;DHT22;6230;52.390;10.256;2023-04-16T13:50:51;16.20;73.90
12329;DHT22;6230;52.390;10.256;2023-04-16T13:53:16;16.30;73.10
12329;DHT22;6230;52.390;10.256;2023-04-16T13:55:42;16.40;72.90
12329;DHT22;6230;52.390;10.256;2023-04-16T13:58:07;16.40;72.70
12329;DHT22;6230;52.390;10.256;2023-04-16T14:00:33;16.40;72.60
12329;DHT22;6230;52.390;10.256;2023-04-16T14:02:59;16.40;72.40
12329;DHT22;6230;52.390;10.256;2023-04-16T14:05:24;16.30;72.10
12329;DHT22;6230;52.390;10.256;2023-04-16T14:07:50;16.20;72.00
12329;DHT22;6230;52.390;10.256;2023-04-16T14:10:16;16.10;72.00
12329;DHT22;6230;52.390;10.256;2023-04-16T14:12:42;16.00;71.90
12329;DHT22;6230;52.390;10.256;2023-04-16T14:15:08;15.80;72.00
12329;DHT22;6230;52.390;10.256;2023-04-16T14:17:35;15.70;72.10
12329;DHT22;6230;52.390;10.256;2023-04-16T14:20:02;15.60;72.20
12329;DHT22;6230;52.390;10.256;2023-04-16T14:22:28;15.50;72.30
12329;DHT22;6230;52.390;10.256;2023-04-16T14:24:54;15.40;72.30
12329;DHT22;6230;52.390;10.256;2023-04-16T14:27:20;15.40;72.30
12329;DHT22;6230;52.390;10.256;2023-04-16T14:29:45;15.30;72.30
12329;DHT22;6230;52.390;10.256;2023-04-16T14:32:11;15.20;72.30
12329;DHT22;6230;52.390;10.256;2023-04-16T14:34:36;15.10;72.40
12329;DHT22;6230;52.390;10.256;2023-04-16T14:37:02;15.10;72.40
12329;DHT22;6230;52.390;10.256;2023-04-16T14:39:28;15.00;72.40
12329;DHT22;6230;52.390;10.256;2023-04-16T14:41:54;14.90;72.40
12329;DHT22;6230;52.390;10.256;2023-04-16T14:44:20;14.90;72.50
12329;DHT22;6230;52.390;10.256;2023-04-16T14:46:47;14.90;72.50
12329;DHT22;6230;52.390;10.256;2023-04-16T14:49:12;14.90;72.50
12329;DHT22;6230;52.390;10.256;2023-04-16T14:51:39;14.90;72.60
12329;DHT22;6230;52.390;10.256;2023-04-16T14:54:05;14.90;72.60
12329;DHT22;6230;52.390;10.256;2023-04-16T14:56:30;14.90;72.60
12329;DHT22;6230;52.390;10.256;2023-04-16T14:58:56;14.90;72.40
12329;DHT22;6230;52.390;10.256;2023-04-16T15:01:21;15.00;72.50
12329;DHT22;6230;52.390;10.256;2023-04-16T15:03:47;15.00;72.30
12329;DHT22;6230;52.390;10.256;2023-04-16T15:06:14;15.10;72.30
12329;DHT22;6230;52.390;10.256;2023-04-16T15:08:39;15.10;72.30
12329;DHT22;6230;52.390;10.256;2023-04-16T15:11:05;15.20;72.10
12329;DHT22;6230;52.390;10.256;2023-04-16T15:13:31;15.30;71.70
12329;DHT22;6230;52.390;10.256;2023-04-16T15:16:00;15.40;71.60
12329;DHT22;6230;52.390;10.256;2023-04-16T15:18:26;15.40;71.30
12329;DHT22;6230;52.390;10.256;2023-04-16T15:20:52;15.40;71.20
12329;DHT22;6230;52.390;10.256;2023-04-16T15:23:18;15.40;71.10
12329;DHT22;6230;52.390;10.256;2023-04-16T15:25:44;15.40;70.80
12329;DHT22;6230;52.390;10.256;2023-04-16T15:28:09;15.40;70.80
12329;DHT22;6230;52.390;10.256;2023-04-16T15:30:39;15.40;70.80
12329;DHT22;6230;52.390;10.256;2023-04-16T15:33:06;15.40;70.70
12329;DHT22;6230;52.390;10.256;2023-04-16T15:35:32;15.40;70.60
12329;DHT22;6230;52.390;10.256;2023-04-16T15:37:57;15.40;70.60
12329;DHT22;6230;52.390;10.256;2023-04-16T15:40:26;15.40;70.50
12329;DHT22;6230;52.390;10.256;2023-04-16T15:42:53;15.50;70.50
12329;DHT22;6230;52.390;10.256;2023-04-16T15:45:19;15.50;70.40